Latest Weather Observations for Barrow Island

IDW60801

Issued at 5:43 pm WST Sunday 24 January 2021 (issued every 10 minutes, with the page automatically refreshed every 10 minutes)

About weather observations | Map of weather stations | Latest weather observations for WA | Other Formats
Station Details ID: 005094 Name: BARROW ISLAND AIRPORT Lat: -20.87 Lon: 115.41 Height: 6.4 m
Data from the previous 72 hours. | See also: Recent months at Barrow Island
Date/Time
WST
Temp
°C
App
Temp
°C
Dew
Point
°C
Rel
Hum
%
Delta-T
°C
Wind Press
QNH
hPa
Press
MSL
hPa
Rain since
9am
mm
Dir  Spd
km/h
Gust
km/h
Spd
kts
Gust
kts
24/05:30pm 29.6 26.6 22.1 64 5.1 WSW 41 50 22 27 1004.6 1004.6 0.0
24/05:00pm 29.5 25.7 21.4 61 5.4 WSW 43 48 23 26 1004.7 1004.7 0.0
24/04:30pm 29.9 26.6 21.6 61 5.6 WSW 41 52 22 28 1004.7 1004.7 0.0
24/04:00pm 29.7 27.5 21.4 61 5.6 WSW 35 50 19 27 1004.6 1004.6 0.0
24/03:30pm 30.1 27.5 21.5 60 5.8 WSW 37 44 20 24 1005.2 1005.2 0.0
24/03:00pm 29.9 27.7 22.1 63 5.3 WSW 37 46 20 25 1005.4 1005.4 0.0
24/02:30pm 30.3 27.7 21.4 59 6.0 WSW 37 46 20 25 1005.7 1005.7 0.0
24/02:00pm 30.1 27.9 21.5 60 5.8 SW 35 44 19 24 1005.8 1005.8 0.0
24/01:30pm 29.7 27.5 21.4 61 5.6 SW 35 43 19 23 1006.0 1006.0 0.0
24/01:00pm 29.7 27.7 21.9 63 5.3 SW 35 41 19 22 1006.4 1006.4 0.0
24/12:30pm 29.1 26.7 21.1 62 5.3 SW 35 43 19 23 1007.0 1007.0 0.0
24/12:00pm 28.9 27.2 21.7 65 4.8 SW 33 39 18 21 1007.3 1007.3 0.0
24/11:30am 28.9 26.4 21.7 65 4.8 SW 37 44 20 24 1007.6 1007.6 0.0
24/11:00am 29.0 27.5 22.0 66 4.7 SW 33 41 18 22 1007.8 1007.8 0.0
24/10:30am 28.4 26.7 21.7 67 4.5 SW 33 43 18 23 1008.0 1008.0 0.0
24/10:00am 28.2 26.7 21.7 68 4.4 SW 32 39 17 21 1008.3 1008.3 0.0
24/09:30am 27.8 26.2 21.6 69 4.1 SW 32 39 17 21 1008.4 1008.4 0.0
24/09:00am 27.8 26.3 21.8 70 4.0 SW 32 39 17 21 1008.4 1008.4 0.0
24/08:30am 27.3 25.4 21.3 69 4.0 SSW 33 39 18 21 1008.2 1008.2 0.0
24/08:00am 26.8 24.5 21.3 72 3.7 SSW 35 44 19 24 1008.0 1008.0 0.0
24/07:30am 26.7 24.4 21.2 72 3.6 SSW 35 43 19 23 1007.9 1007.9 0.0
24/07:00am 26.7 24.5 22.1 76 3.1 SSW 37 43 20 23 1007.6 1007.6 0.0
24/06:30am 26.5 24.3 22.1 77 3.0 SW 37 44 20 24 1007.2 1007.2 0.0
24/06:00am 26.3 23.6 21.9 77 2.9 SW 39 46 21 25 1006.7 1006.7 0.0
24/05:30am 26.3 24.5 22.2 78 2.8 SW 35 43 19 23 1006.2 1006.2 0.0
24/05:00am 26.2 23.8 21.8 77 2.9 SW 37 43 20 23 1005.8 1005.8 0.0
24/04:30am 26.7 24.2 22.3 77 3.0 SW 39 46 21 25 1005.6 1005.6 0.0
24/04:00am 26.9 24.7 22.9 79 2.7 SW 39 44 21 24 1005.4 1005.4 0.0
24/03:30am 26.9 24.8 22.3 76 3.1 SW 37 43 20 23 1005.2 1005.2 0.0
24/03:00am 26.9 25.2 22.5 77 3.0 SW 35 43 19 23 1005.0 1005.0 0.0
24/02:30am 27.0 25.2 22.2 75 3.2 SW 35 44 19 24 1005.0 1005.0 0.0
24/02:00am 27.1 25.0 22.3 75 3.2 SW 37 43 20 23 1005.0 1005.0 0.0
24/01:30am 27.2 26.2 23.0 78 2.9 SW 33 41 18 22 1005.2 1005.2 0.0
24/01:00am 27.2 25.2 21.9 73 3.6 SW 35 41 19 22 1005.4 1005.4 0.0
24/12:30am 27.3 26.1 22.7 76 3.1 SW 33 43 18 23 1005.6 1005.6 0.0
24/12:00am 27.6 26.2 23.0 76 3.1 SW 35 43 19 23 1005.8 1005.8 0.0
 
Date/Time
WST
Temp
°C
App
Temp
°C
Dew
Point
°C
Rel
Hum
%
Delta-T
°C
Wind Press
QNH
hPa
Press
MSL
hPa
Rain since
9am
mm
Dir  Spd
km/h
Gust
km/h
Spd
kts
Gust
kts
23/11:30pm 27.5 26.0 22.7 75 3.3 SW 35 43 19 23 1006.0 1006.0 0.0
23/11:00pm 27.7 26.1 22.6 74 3.5 WSW 35 41 19 22 1006.3 1006.3 0.0
23/10:30pm 27.8 26.3 22.7 74 3.5 WSW 35 44 19 24 1006.4 1006.4 0.0
23/10:00pm 27.9 26.6 23.1 75 3.3 WSW 35 41 19 22 1006.4 1006.4 0.0
23/09:30pm 28.0 26.6 22.9 74 3.5 WSW 35 43 19 23 1006.2 1006.2 0.0
23/09:00pm 28.1 26.5 22.6 72 3.7 WSW 35 41 19 22 1005.9 1005.9 0.0
23/08:30pm 28.1 26.5 22.6 72 3.7 WSW 35 44 19 24 1005.8 1005.8 0.0
23/08:00pm 28.2 26.7 22.7 72 3.7 WSW 35 44 19 24 1005.5 1005.5 0.0
23/07:30pm 28.3 27.2 22.8 72 3.7 WSW 33 43 18 23 1005.4 1005.4 0.0
23/07:00pm 28.6 27.3 23.1 72 3.8 WSW 35 41 19 22 1005.1 1005.1 0.0
23/06:30pm 28.9 27.2 22.4 68 4.4 WSW 35 43 19 23 1004.7 1004.7 0.0
23/06:00pm 29.3 27.4 22.8 68 4.4 WSW 37 43 20 23 1004.6 1004.6 0.0
23/05:30pm 30.0 28.2 22.9 65 4.9 WSW 37 48 20 26 1004.4 1004.4 0.0
23/05:00pm 30.1 27.9 22.8 65 5.0 WSW 39 46 21 25 1004.2 1004.2 0.0
23/04:30pm 30.1 28.0 22.3 63 5.3 WSW 37 48 20 26 1004.1 1004.1 0.0
23/04:00pm 31.0 28.5 22.3 60 5.9 WSW 39 46 21 25 1004.1 1004.1 0.0
23/03:30pm 29.9 26.9 22.1 63 5.3 WSW 41 48 22 26 1004.1 1004.1 0.0
23/03:00pm 30.6 28.0 21.4 58 6.2 WSW 37 48 20 26 1004.1 1004.1 0.0
23/02:30pm 30.0 27.5 21.7 61 5.6 WSW 37 48 20 26 1004.1 1004.1 0.0
23/02:00pm 30.7 28.0 21.2 57 6.4 WSW 37 46 20 25 1004.4 1004.4 0.0
23/01:30pm 30.4 26.7 21.8 60 5.8 WSW 44 54 24 29 1004.2 1004.2 0.0
23/01:00pm 29.7 26.0 21.9 63 5.3 SW 44 50 24 27 1004.2 1004.2 0.0
23/12:30pm 30.2 27.2 22.1 62 5.5 SW 41 48 22 26 1004.4 1004.4 0.0
23/12:00pm 29.4 25.7 21.6 63 5.2 SW 43 50 23 27 1004.5 1004.5 0.0
23/11:30am 29.2 25.4 21.4 63 5.2 SW 43 50 23 27 1004.5 1004.5 0.0
23/11:00am 29.4 25.7 21.6 63 5.2 SW 43 50 23 27 1004.8 1004.8 0.0
23/10:30am 28.9 25.4 21.1 62 5.2 SW 41 46 22 25 1005.0 1005.0 0.0
23/10:00am 28.5 24.7 20.5 62 5.3 SW 41 46 22 25 1005.0 1005.0 0.0
23/09:30am 28.5 24.9 21.0 64 5.0 SW 41 50 22 27 1005.0 1005.0 0.0
23/09:00am 28.1 24.9 21.1 65 4.7 SW 39 48 21 26 1005.0 1005.0 0.0
23/08:30am 27.7 24.2 20.5 65 4.7 SW 39 46 21 25 1004.7 1004.7 0.0
23/08:00am 27.5 24.7 21.1 68 4.3 SW 37 46 20 25 1004.7 1004.7 0.0
23/07:30am 27.2 24.5 21.2 69 4.0 SW 37 44 20 24 1004.5 1004.5 0.0
23/07:00am 26.6 23.3 20.9 71 3.8 SW 39 46 21 25 1004.0 1004.0 0.0
23/06:30am 26.6 24.4 21.4 73 3.5 SW 35 43 19 23 1004.0 1004.0 0.0
23/06:00am 26.7 23.9 21.7 74 3.3 SW 39 44 21 24 1003.5 1003.5 0.0
23/05:30am 26.6 23.9 22.0 76 3.1 SW 39 43 21 23 1003.3 1003.3 0.0
23/05:00am 26.9 24.9 22.5 77 3.0 SSW 37 46 20 25 1002.7 1002.7 0.0
23/04:30am 26.9 23.7 22.5 77 3.0 SW 43 50 23 27 1002.4 1002.4 0.0
23/04:00am 26.9 23.7 22.5 77 3.0 SW 43 50 23 27 1002.4 1002.4 0.0
23/03:30am 27.4 24.7 23.6 80 2.6 SW 44 52 24 28 1002.0 1002.0 0.0
23/03:00am 27.4 25.2 23.6 80 2.6 SW 41 50 22 27 1002.1 1002.1 0.0
23/02:30am 27.5 24.4 23.7 80 2.6 SW 46 59 25 32 1001.8 1001.8 0.0
23/02:00am 27.5 24.7 23.5 79 2.8 SW 44 54 24 29 1002.0 1002.0 0.0
23/01:30am 27.7 25.3 23.9 80 2.6 SW 43 52 23 28 1001.9 1001.9 0.0
23/01:00am 27.6 24.9 23.6 79 2.8 SW 44 54 24 29 1002.1 1002.1 0.0
23/12:30am 27.6 24.6 23.8 80 2.6 SW 46 56 25 30 1001.9 1001.9 0.0
23/12:00am 27.6 24.6 23.8 80 2.6 SW 46 56 25 30 1002.3 1002.3 0.0
 
Date/Time
WST
Temp
°C
App
Temp
°C
Dew
Point
°C
Rel
Hum
%
Delta-T
°C
Wind Press
QNH
hPa
Press
MSL
hPa
Rain since
9am
mm
Dir  Spd
km/h
Gust
km/h
Spd
kts
Gust
kts
22/11:30pm 27.7 24.9 23.5 78 2.9 WSW 44 57 24 31 1002.3 1002.3 0.0
22/11:00pm 27.9 25.4 23.7 78 2.9 WSW 43 50 23 27 1003.1 1003.1 0.0
22/10:30pm 27.9 27.3 23.7 78 2.9 WSW 33 43 18 23 1003.5 1003.5 0.0
22/10:00pm 28.1 26.2 23.5 76 3.2 WSW 39 44 21 24 1003.2 1003.2 0.0
22/09:30pm 28.4 27.5 23.8 76 3.2 WSW 35 46 19 25 1003.1 1003.1 0.0
22/09:00pm 28.4 26.4 23.3 74 3.5 WSW 39 46 21 25 1003.0 1003.0 0.0
22/08:30pm 28.6 26.7 23.5 74 3.5 WSW 39 46 21 25 1002.8 1002.8 0.0
22/08:00pm 28.9 27.5 24.2 76 3.3 WSW 39 52 21 28 1002.4 1002.4 0.0
22/07:30pm 28.9 26.8 23.8 74 3.5 WSW 41 54 22 29 1001.9 1001.9 0.0
22/07:00pm 29.3 27.3 23.3 70 4.1 W 39 50 21 27 1001.5 1001.5 0.0
22/06:30pm 30.0 27.5 22.4 63 5.2 W 39 48 21 26 1001.0 1001.0 0.0
22/06:00pm 30.9 27.7 21.7 58 6.2 W 41 50 22 27 1000.8 1000.8 0.0
22/05:30pm 31.1 29.0 22.4 60 5.9 WSW 37 44 20 24 1000.8 1000.8 0.0
22/05:00pm 31.8 29.6 22.2 56 6.6 WSW 37 43 20 23 1001.2 1001.2 0.0
22/04:30pm 32.2 30.8 22.9 58 6.4 W 35 43 19 23 1001.4 1001.4 0.0
22/04:00pm 32.7 31.6 22.8 56 6.8 W 33 39 18 21 1001.6 1001.6 0.0
22/03:30pm 32.5 31.3 22.3 55 7.0 W 32 39 17 21 1001.8 1001.8 0.0
22/03:00pm 32.6 31.5 22.4 55 7.0 WSW 32 43 17 23 1002.0 1002.0 0.0
22/02:30pm 33.0 33.2 24.7 61 5.8 WSW 32 39 17 21 1002.4 1002.4 0.0
22/02:00pm 32.4 33.2 24.4 62 5.6 WSW 28 35 15 19 1002.8 1002.8 0.0
22/01:30pm 32.6 33.7 24.4 62 5.7 WSW 26 33 14 18 1003.3 1003.3 0.0
22/01:00pm 32.1 33.8 24.7 65 5.2 SW 24 30 13 16 1003.7 1003.7 0.0
22/12:30pm 31.8 33.5 24.1 63 5.4 SW 22 28 12 15 1004.1 1004.1 0.0
22/12:00pm 31.8 33.4 23.9 63 5.5 SW 22 30 12 16 1004.4 1004.4 0.0
22/11:30am 31.7 33.0 24.0 63 5.4 SSW 24 28 13 15 1004.6 1004.6 0.0
22/11:00am 31.7 33.2 24.3 65 5.2 SSW 24 28 13 15 1004.8 1004.8 0.0
22/10:30am 31.3 32.7 24.2 66 5.0 SSW 24 30 13 16 1004.9 1004.9 0.0
22/10:00am 30.9 32.6 24.1 67 4.7 SSW 22 28 12 15 1005.2 1005.2 0.0
22/09:30am 31.0 33.0 23.9 66 4.9 SW 20 28 11 15 1005.5 1005.5 0.0
22/09:00am 30.8 32.3 24.4 68 4.5 SW 24 30 13 16 1005.3 1005.3 0.0
22/08:30am 30.3 32.4 24.7 72 3.9 SW 22 28 12 15 1005.1 1005.1 0.0
22/08:00am 30.3 32.5 24.9 73 3.8 SW 22 28 12 15 1005.1 1005.1 0.0
22/07:30am 30.0 31.3 23.4 67 4.5 SSW 22 28 12 15 1005.1 1005.1 0.0
22/07:00am 29.5 32.3 25.0 77 3.2 SW 19 24 10 13 1005.0 1005.0 0.0
22/06:30am 29.2 32.4 25.6 81 2.5 WSW 19 20 10 11 1004.9 1004.9 0.0
22/06:00am 29.0 31.8 25.8 83 2.3 SW 22 28 12 15 1004.5 1004.5 0.0
22/05:30am 28.9 32.3 26.1 85 2.0 WSW 20 24 11 13 1004.1 1004.1 0.0
22/05:00am 29.0 31.7 26.2 85 2.0 WSW 24 30 13 16 1003.7 1003.7 0.0
22/04:30am 29.2 32.0 25.8 82 2.4 W 22 30 12 16 1003.5 1003.5 0.0
22/04:00am 29.2 31.7 25.4 80 2.7 WNW 22 30 12 16 1003.2 1003.2 0.0
22/03:30am 29.0 31.0 24.6 77 3.1 WNW 22 28 12 15 1003.0 1003.0 0.0
22/03:00am 28.9 30.9 24.5 77 3.1 WNW 22 30 12 16 1002.9 1002.9 0.0
22/02:30am 28.9 30.9 24.0 75 3.4 WNW 20 24 11 13 1002.9 1002.9 0.0
22/02:00am 28.8 31.1 23.5 73 3.7 NW 17 20 9 11 1003.1 1003.1 0.0
22/01:30am 28.8 30.8 23.9 75 3.4 N 20 26 11 14 1003.2 1003.2 0.0
22/01:00am 28.9 30.0 22.4 68 4.4 N 20 24 11 13 1003.5 1003.5 0.0
22/12:30am 29.1 30.5 22.8 69 4.3 N 20 26 11 14 1004.1 1004.1 0.0
22/12:00am 28.5 30.1 23.2 73 3.6 NNE 20 26 11 14 1004.5 1004.5 0.0
 
Date/Time
WST
Temp
°C
App
Temp
°C
Dew
Point
°C
Rel
Hum
%
Delta-T
°C
Wind Press
QNH
hPa
Press
MSL
hPa
Rain since
9am
mm
Dir  Spd
km/h
Gust
km/h
Spd
kts
Gust
kts
21/11:30pm 28.7 29.1 23.8 75 3.4 NE 28 33 15 18 1004.7 1004.7 0.0
21/11:00pm 29.1 27.5 23.3 71 4.0 ENE 37 43 20 23 1005.1 1005.1 0.0
21/10:30pm 29.3 27.4 24.0 73 3.7 ENE 41 50 22 27 1005.6 1005.6 0.0
21/10:00pm 30.0 30.6 25.3 76 3.3 E 32 37 17 20 1005.8 1005.8 0.0
21/09:30pm 29.0 26.3 25.6 82 2.4 E 50 57 27 31 1006.1 1006.1 0.0
21/09:04pm 30.1 32.5 25.2 75 3.5 ESE 22 43 12 23 1005.6 1005.6 0.0
21/09:00pm 30.9 35.2 26.6 78 3.1 SE 17 20 9 11 1005.4 1005.4 0.0
21/08:30pm 30.7 36.4 26.4 78 3.1 SE 9 11 5 6 1005.5 1005.5 0.0
21/08:00pm 30.6 36.4 26.1 77 3.2 W 7 9 4 5 1004.7 1004.7 0.0
21/07:30pm 30.9 36.0 26.2 76 3.4 SW 11 15 6 8 1004.4 1004.4 0.0
21/07:00pm 31.4 36.5 26.2 74 3.7 SW 11 13 6 7 1004.3 1004.3 0.0
21/06:30pm 32.0 36.9 25.8 69 4.4 SSW 11 13 6 7 1003.9 1003.9 0.0
21/06:00pm 32.2 37.5 25.8 69 4.6 SSE 9 13 5 7 1003.2 1003.2 0.0

Other formats

Comma delimited format used in spreadsheet applications
http://www.bom.gov.au/fwo/IDW60801/IDW60801.95304.axf

JavaScript Object Notation format (JSON) in row-major order
http://www.bom.gov.au/fwo/IDW60801/IDW60801.95304.json

Data quality

Most of these data are generated automatically and are frequently updated. Quality checks on data are not normally performed. It is possible for incorrect values to appear. Refer to information at About Latest Weather Observations and please check the disclaimer before using these data.